Airfield :
LOGIN :

Register | Disclaimer

   EN    FR    IT 

 










Legend :    VFR   Marginal VFR   IFR   Intensive IFR   Very Intensive IFR
Visi :
Ceiling :
>= 8 km
>= 3000ft
5 to 8 km
1000 to 3000 ft
1500m to 5 km
500 to 1000 ft
800 to 1500m
200 to 500 ft
< 800m
< 200 ft
Symbols :   Thunderstorms  Fog  Heavy snow  Heavy precipitations  Wind > 20 kt
SIGMETs :     Misc.  Thunderstorms  Icing  Turbulence  Mountain Waves  Volcanic Ashes







- Airport Elevation : 144 ft
- IATA code : PGF
- Download approach charts


LFMP - Perpignan

CURRENT METAR :
  • 141830Z AUTO 32014KT 9999 SCT035 SCT041 11/06 Q1018 BECMG 31015G25KT

EXPIRED METARs :
  • 141800Z AUTO 32018G29KT 9999 FEW022 SCT033 11/06 Q1017 NOSIG
  • 141730Z AUTO 31024KT 9999 FEW021 SCT032 11/06 Q1017 BECMG 31015G25KT
  • 141700Z AUTO 32023G35KT 9999 FEW030 11/06 Q1016 BECMG 31015G25KT
  • 141630Z AUTO 32025G40KT 9999 FEW030 12/06 Q1016 BECMG 31015G25KT
  • 141600Z AUTO 32019G31KT 290V360 9999 FEW030 12/06 Q1016 NOSIG

TAF TAF LFMP
Valid from the 14 at 15:00 until the 15 at 15:00 UTC


141400Z 1415/1515 32010KT 9999 FEW030 OVC050
BECMG 1415/1417 31015G25KT CAVOK
BECMG 1506/1508 VRB08KT 9999 BKN040
ATIS : +33 4 68 63 75 12
No reported NOTAMs for that airfield.



MET'MAP, your aeronautical weather chart ! - Copyright ORBIFLY December 2007 - Disclaimer

ORBIFLY MET'MAP TEAM :

Programming & Development : Alexandra Zaïnal
Concept & Development : Baudouin d'Aumeries
Co-Development & Prog : Marc-Olivier Méhu
Technical & hardware support : Manuel Goepfert

Contact : metmap@orbifly.com




SOURCES & CREDITS :

   NOAA